Time;durP1;ratioP1;P1;durP2;ratioP2;P2;SDS_P1;SDS_P2;PMS_P1;PMS_P2;Temp;Humidity;BMP_temperature;BMP_pressure;BME280_temperature;BME280_humidity;BME280_pressure;Samples;Min_cycle;Max_cycle;Signal;HPM_P1;HPM_P2
2022/07/24 00:02:14;;;;;;;9.40;5.15;;;;;;;;;;5029154;28;20093;-76
2022/07/24 00:04:40;;;;;;;12.98;6.25;;;;;;;;;;5027265;28;20025;-77
2022/07/24 00:07:06;;;;;;;9.73;5.43;;;;;;;;;;5027556;28;20076;-76
2022/07/24 00:09:32;;;;;;;10.93;5.75;;;;;;;;;;5026523;28;20025;-77
2022/07/24 00:11:59;;;;;;;7.82;5.25;;;;;;;;;;5027494;28;20033;-76
2022/07/24 00:14:25;;;;;;;8.90;5.40;;;;;;;;;;5027058;28;20479;-76
2022/07/24 00:16:51;;;;;;;9.15;5.50;;;;;;;;;;5027885;28;20034;-77
2022/07/24 00:19:17;;;;;;;9.20;6.13;;;;;;;;;;5026202;28;20104;-76
2022/07/24 00:21:43;;;;;;;8.23;4.72;;;;;;;;;;5024830;28;20434;-78
2022/07/24 00:24:09;;;;;;;9.98;4.85;;;;;;;;;;5034243;28;20037;-76
2022/07/24 00:26:36;;;;;;;10.13;6.10;;;;;;;;;;5035033;28;20088;-77
2022/07/24 00:29:02;;;;;;;10.30;5.45;;;;;;;;;;5034472;28;20025;-78
2022/07/24 00:31:28;;;;;;;8.85;5.63;;;;;;;;;;5033736;28;20050;-77
2022/07/24 00:33:54;;;;;;;9.20;5.25;;;;;;;;;;5030399;28;20033;-76
2022/07/24 00:36:20;;;;;;;7.30;5.00;;;;;;;;;;5028238;28;20031;-76
2022/07/24 00:38:46;;;;;;;9.02;5.25;;;;;;;;;;5024698;28;20410;-77
2022/07/24 00:41:12;;;;;;;9.05;5.00;;;;;;;;;;5029070;28;20030;-77
2022/07/24 00:44:08;;;;;;;14.45;6.82;;;;;;;;;;5026732;28;20033;-77
2022/07/24 00:46:35;;;;;;;8.75;5.28;;;;;;;;;;5023913;28;20096;-77
2022/07/24 00:49:01;;;;;;;10.13;5.60;;;;;;;;;;5025611;28;20144;-77
2022/07/24 00:51:28;;;;;;;8.70;5.18;;;;;;;;;;5026404;28;20071;-77
2022/07/24 00:53:54;;;;;;;7.22;5.00;;;;;;;;;;5026921;28;20085;-77
2022/07/24 00:56:20;;;;;;;10.85;4.88;;;;;;;;;;5024124;28;20026;-76
2022/07/24 00:58:47;;;;;;;7.53;5.22;;;;;;;;;;5027593;28;20390;-78
2022/07/24 01:01:13;;;;;;;9.13;5.57;;;;;;;;;;5027081;28;20026;-76
2022/07/24 01:03:39;;;;;;;9.50;4.93;;;;;;;;;;5025332;28;20057;-76
2022/07/24 01:06:06;;;;;;;8.20;4.82;;;;;;;;;;5024879;28;20033;-77
2022/07/24 01:08:33;;;;;;;11.52;5.95;;;;;;;;;;5023824;28;20026;-77
2022/07/24 01:10:59;;;;;;;9.25;5.00;;;;;;;;;;5030090;28;20021;-76
2022/07/24 01:13:26;;;;;;;8.50;5.43;;;;;;;;;;5027726;28;20104;-78
2022/07/24 01:15:52;;;;;;;9.55;5.72;;;;;;;;;;5024649;28;20456;-77
2022/07/24 01:18:18;;;;;;;11.50;4.93;;;;;;;;;;5029986;28;20033;-77
2022/07/24 01:20:48;;;;;;;9.02;4.75;;;;;;;;;;5030583;28;20021;-77
2022/07/24 01:23:14;;;;;;;6.25;3.88;;;;;;;;;;5019574;28;20072;-77
2022/07/24 01:25:40;;;;;;;8.00;4.28;;;;;;;;;;5027076;28;20022;-77
2022/07/24 01:28:07;;;;;;;8.57;4.90;;;;;;;;;;5030600;28;20084;-76
2022/07/24 01:30:33;;;;;;;6.80;3.70;;;;;;;;;;5027172;28;20527;-76
2022/07/24 01:32:59;;;;;;;6.47;4.00;;;;;;;;;;5029091;28;20442;-77
2022/07/24 01:35:25;;;;;;;7.90;4.57;;;;;;;;;;5030080;28;20341;-75
2022/07/24 01:37:52;;;;;;;5.70;3.65;;;;;;;;;;5028177;28;20376;-76
2022/07/24 01:40:19;;;;;;;6.90;4.13;;;;;;;;;;5022769;28;20415;-76
2022/07/24 01:42:45;;;;;;;7.57;3.88;;;;;;;;;;5028890;28;20029;-77
2022/07/24 01:45:11;;;;;;;5.55;3.60;;;;;;;;;;5022995;28;20167;-76
2022/07/24 01:47:37;;;;;;;5.15;3.78;;;;;;;;;;5022252;28;20053;-77
2022/07/24 01:50:03;;;;;;;5.32;3.78;;;;;;;;;;5020848;28;20037;-75
2022/07/24 01:52:29;;;;;;;7.13;3.63;;;;;;;;;;5027788;28;20082;-77
2022/07/24 01:54:55;;;;;;;9.98;4.07;;;;;;;;;;5028530;28;20490;-77
2022/07/24 01:57:21;;;;;;;5.82;4.05;;;;;;;;;;5030198;28;20029;-77
2022/07/24 01:59:48;;;;;;;4.20;3.58;;;;;;;;;;5028266;28;20026;-76
2022/07/24 02:02:14;;;;;;;6.45;4.38;;;;;;;;;;5028475;28;20518;-77
2022/07/24 02:04:40;;;;;;;6.38;3.90;;;;;;;;;;5028161;28;20021;-77
2022/07/24 02:07:06;;;;;;;8.18;4.07;;;;;;;;;;5027968;28;20029;-76
2022/07/24 02:09:32;;;;;;;7.60;4.00;;;;;;;;;;5025676;28;20025;-76
2022/07/24 02:11:58;;;;;;;6.53;3.40;;;;;;;;;;5028257;28;20028;-77
2022/07/24 02:14:24;;;;;;;6.30;3.92;;;;;;;;;;5028982;28;20037;-77
2022/07/24 02:16:50;;;;;;;5.95;3.97;;;;;;;;;;5028384;28;20028;-77
2022/07/24 02:19:16;;;;;;;6.88;3.60;;;;;;;;;;5027306;28;20037;-77
2022/07/24 02:21:42;;;;;;;7.18;4.05;;;;;;;;;;5027401;28;20036;-76
2022/07/24 02:24:09;;;;;;;6.35;3.58;;;;;;;;;;5025481;28;20117;-76
2022/07/24 02:26:35;;;;;;;6.55;3.88;;;;;;;;;;5028912;28;20026;-75
2022/07/24 02:29:01;;;;;;;11.90;5.57;;;;;;;;;;5026569;28;20025;-76
2022/07/24 02:31:27;;;;;;;7.60;3.90;;;;;;;;;;5024521;28;20057;-77
2022/07/24 02:33:53;;;;;;;11.75;4.07;;;;;;;;;;5025696;28;20026;-76
2022/07/24 02:36:19;;;;;;;4.95;3.67;;;;;;;;;;5026473;28;20061;-76
2022/07/24 02:38:45;;;;;;;7.93;3.95;;;;;;;;;;5026790;28;20120;-76
2022/07/24 02:41:11;;;;;;;7.25;4.35;;;;;;;;;;5025700;28;20513;-77
2022/07/24 02:43:37;;;;;;;8.68;3.83;;;;;;;;;;5022613;28;20021;-76
2022/07/24 02:46:03;;;;;;;5.32;4.03;;;;;;;;;;5019506;28;20488;-75
2022/07/24 02:48:29;;;;;;;7.68;3.50;;;;;;;;;;5027319;28;20037;-75
2022/07/24 02:50:56;;;;;;;4.93;3.47;;;;;;;;;;5026642;28;20026;-76
2022/07/24 02:53:22;;;;;;;9.98;4.03;;;;;;;;;;5026143;28;20380;-77
2022/07/24 02:55:48;;;;;;;4.85;3.83;;;;;;;;;;5026992;28;20395;-77
2022/07/24 02:58:14;;;;;;;7.80;4.05;;;;;;;;;;5023938;28;20217;-77
2022/07/24 03:00:40;;;;;;;6.90;3.63;;;;;;;;;;5024030;28;20419;-77
2022/07/24 03:03:06;;;;;;;7.05;3.72;;;;;;;;;;5025416;28;20028;-77
2022/07/24 03:05:32;;;;;;;7.50;3.47;;;;;;;;;;5026229;28;20048;-76
2022/07/24 03:07:59;;;;;;;9.15;3.53;;;;;;;;;;5027433;28;20030;-77
2022/07/24 03:10:25;;;;;;;4.90;3.13;;;;;;;;;;5027393;28;20053;-76
2022/07/24 03:12:51;;;;;;;6.70;3.15;;;;;;;;;;5027656;28;20025;-75
2022/07/24 03:15:17;;;;;;;6.40;3.50;;;;;;;;;;5027430;28;20510;-76
2022/07/24 03:17:54;;;;;;;5.22;3.15;;;;;;;;;;5024052;28;20021;-76
2022/07/24 03:20:21;;;;;;;7.47;3.08;;;;;;;;;;5023201;28;20384;-76
2022/07/24 03:22:47;;;;;;;5.70;2.97;;;;;;;;;;5027605;28;20014;-76
2022/07/24 03:25:13;;;;;;;4.47;2.85;;;;;;;;;;5026661;28;20545;-76
2022/07/24 03:27:39;;;;;;;6.95;2.97;;;;;;;;;;5017872;28;20075;-76
2022/07/24 03:30:06;;;;;;;5.03;3.03;;;;;;;;;;5021783;28;20075;-76
2022/07/24 03:32:32;;;;;;;11.63;3.97;;;;;;;;;;5019213;28;20061;-77
2022/07/24 03:34:59;;;;;;;7.55;3.28;;;;;;;;;;5021441;28;20362;-74
2022/07/24 03:37:25;;;;;;;11.80;3.20;;;;;;;;;;5015579;28;20540;-76
2022/07/24 03:39:51;;;;;;;6.88;4.07;;;;;;;;;;5025043;28;20431;-74
2022/07/24 03:42:17;;;;;;;6.15;4.60;;;;;;;;;;5023981;28;20053;-77
2022/07/24 03:44:43;;;;;;;6.07;3.45;;;;;;;;;;5025374;28;20172;-74
2022/07/24 03:47:09;;;;;;;7.93;4.22;;;;;;;;;;5019212;28;20049;-75
2022/07/24 03:49:36;;;;;;;10.88;4.20;;;;;;;;;;5024886;28;20101;-75
2022/07/24 03:52:02;;;;;;;9.45;4.25;;;;;;;;;;5024876;28;20214;-75
2022/07/24 03:54:28;;;;;;;6.03;3.92;;;;;;;;;;5024473;28;20083;-76
2022/07/24 03:56:54;;;;;;;8.88;4.30;;;;;;;;;;5025375;28;20029;-75
2022/07/24 03:59:20;;;;;;;8.73;4.60;;;;;;;;;;5024076;28;20025;-76
2022/07/24 04:01:46;;;;;;;14.45;4.20;;;;;;;;;;5024380;28;20705;-76
2022/07/24 04:04:12;;;;;;;9.30;4.75;;;;;;;;;;5026844;28;20388;-76
2022/07/24 04:06:40;;;;;;;9.82;4.20;;;;;;;;;;5027084;28;20108;-76
2022/07/24 04:09:06;;;;;;;10.13;4.00;;;;;;;;;;5025243;28;20060;-76
2022/07/24 04:11:32;;;;;;;11.38;4.80;;;;;;;;;;5023680;28;20116;-76
2022/07/24 04:13:59;;;;;;;6.45;4.65;;;;;;;;;;5022734;28;20044;-76
2022/07/24 04:16:25;;;;;;;10.90;4.60;;;;;;;;;;5022823;28;20071;-76
2022/07/24 04:18:51;;;;;;;10.38;4.90;;;;;;;;;;5022437;28;20022;-77
2022/07/24 04:21:17;;;;;;;8.90;4.18;;;;;;;;;;5021913;28;20480;-76
2022/07/24 04:23:43;;;;;;;9.23;4.25;;;;;;;;;;5025864;28;20029;-75
2022/07/24 04:26:09;;;;;;;8.45;4.18;;;;;;;;;;5025783;28;20033;-77
2022/07/24 04:28:36;;;;;;;11.13;4.80;;;;;;;;;;5025771;28;20037;-77
2022/07/24 04:31:02;;;;;;;12.65;5.45;;;;;;;;;;5024056;28;20060;-76
2022/07/24 04:33:28;;;;;;;8.35;4.30;;;;;;;;;;5027543;28;20104;-77
2022/07/24 04:35:54;;;;;;;11.32;5.18;;;;;;;;;;5023817;28;20053;-77
2022/07/24 04:38:20;;;;;;;14.43;5.10;;;;;;;;;;5027146;28;20028;-76
2022/07/24 04:40:46;;;;;;;10.40;4.60;;;;;;;;;;5024056;28;20025;-76
2022/07/24 04:43:12;;;;;;;10.05;5.28;;;;;;;;;;5027316;28;20048;-76
2022/07/24 04:45:38;;;;;;;13.68;4.88;;;;;;;;;;5029138;28;20022;-76
2022/07/24 04:48:05;;;;;;;12.35;4.95;;;;;;;;;;5029380;28;20037;-76
2022/07/24 04:50:31;;;;;;;12.48;5.95;;;;;;;;;;5030032;28;20018;-76
2022/07/24 04:52:57;;;;;;;12.00;5.35;;;;;;;;;;5026963;28;20120;-76
2022/07/24 04:55:23;;;;;;;9.10;4.40;;;;;;;;;;5023278;28;20450;-77
2022/07/24 04:57:49;;;;;;;11.90;4.80;;;;;;;;;;5030331;28;20044;-76
2022/07/24 05:00:15;;;;;;;9.50;4.75;;;;;;;;;;5026950;28;20383;-77
2022/07/24 05:02:42;;;;;;;11.82;5.70;;;;;;;;;;5029096;28;20029;-75
2022/07/24 05:05:08;;;;;;;12.15;4.78;;;;;;;;;;5029088;28;20037;-77
2022/07/24 05:07:34;;;;;;;10.60;4.90;;;;;;;;;;5030779;28;20029;-76
2022/07/24 05:10:00;;;;;;;15.48;6.00;;;;;;;;;;5028863;28;20053;-76
2022/07/24 05:12:27;;;;;;;14.20;5.40;;;;;;;;;;5023008;28;20030;-76
2022/07/24 05:14:53;;;;;;;13.85;5.70;;;;;;;;;;5028339;28;20100;-76
2022/07/24 05:17:19;;;;;;;12.00;5.10;;;;;;;;;;5026656;28;20022;-76
2022/07/24 05:19:45;;;;;;;11.82;4.43;;;;;;;;;;5028481;28;20076;-76
2022/07/24 05:22:11;;;;;;;13.10;4.45;;;;;;;;;;5029903;28;20100;-76
2022/07/24 05:24:37;;;;;;;13.13;5.00;;;;;;;;;;5029106;28;20022;-76
2022/07/24 05:27:03;;;;;;;13.07;5.57;;;;;;;;;;5028066;28;20025;-77
2022/07/24 05:29:29;;;;;;;10.88;4.63;;;;;;;;;;5029334;28;20032;-76
2022/07/24 05:31:55;;;;;;;13.30;5.25;;;;;;;;;;5029706;28;20049;-76
2022/07/24 05:34:22;;;;;;;12.48;4.88;;;;;;;;;;5029122;28;20038;-76
2022/07/24 05:36:48;;;;;;;14.82;6.30;;;;;;;;;;5027556;28;20369;-76
2022/07/24 05:39:14;;;;;;;11.30;4.05;;;;;;;;;;5027566;28;20075;-77
2022/07/24 05:41:41;;;;;;;13.05;4.55;;;;;;;;;;5026598;28;20456;-75
2022/07/24 05:44:07;;;;;;;14.65;4.43;;;;;;;;;;5029817;28;20531;-77
2022/07/24 05:46:33;;;;;;;9.85;4.60;;;;;;;;;;5027826;28;20627;-76
2022/07/24 05:48:59;;;;;;;10.80;4.18;;;;;;;;;;5030057;28;20040;-76
2022/07/24 05:51:28;;;;;;;7.93;3.97;;;;;;;;;;5029502;28;20029;-76
2022/07/24 05:53:54;;;;;;;11.85;4.43;;;;;;;;;;5023254;28;20030;-76
2022/07/24 05:56:20;;;;;;;9.27;5.22;;;;;;;;;;5029035;28;20333;-75
2022/07/24 05:58:46;;;;;;;12.75;4.75;;;;;;;;;;5029046;28;20017;-77
2022/07/24 06:01:12;;;;;;;13.13;5.75;;;;;;;;;;5025180;28;20026;-77
2022/07/24 06:03:38;;;;;;;10.55;4.07;;;;;;;;;;5026932;28;20074;-78
2022/07/24 06:06:05;;;;;;;13.70;4.63;;;;;;;;;;5025994;28;20053;-77
2022/07/24 06:08:31;;;;;;;15.00;4.72;;;;;;;;;;5029606;28;20403;-77
2022/07/24 06:10:57;;;;;;;11.30;4.22;;;;;;;;;;5028591;28;20018;-77
2022/07/24 06:13:23;;;;;;;11.65;4.70;;;;;;;;;;5029902;28;20036;-76
2022/07/24 06:15:49;;;;;;;8.30;3.72;;;;;;;;;;5027405;28;20108;-77
2022/07/24 06:18:15;;;;;;;8.52;4.38;;;;;;;;;;5028376;28;20033;-77
2022/07/24 06:20:41;;;;;;;7.78;4.85;;;;;;;;;;5029085;28;20251;-77
2022/07/24 06:23:07;;;;;;;14.90;5.70;;;;;;;;;;5027156;28;20108;-75
2022/07/24 06:25:34;;;;;;;12.93;4.70;;;;;;;;;;5025415;28;20100;-76
2022/07/24 06:28:00;;;;;;;7.60;3.35;;;;;;;;;;5024326;28;20601;-76
2022/07/24 06:30:26;;;;;;;8.50;4.13;;;;;;;;;;5026185;28;20053;-76
2022/07/24 06:32:54;;;;;;;11.40;4.10;;;;;;;;;;5025653;28;20155;-77
2022/07/24 06:35:20;;;;;;;8.23;4.38;;;;;;;;;;5027651;28;20026;-77
2022/07/24 06:37:47;;;;;;;12.32;4.28;;;;;;;;;;5026955;28;20490;-77
2022/07/24 06:40:13;;;;;;;7.03;3.45;;;;;;;;;;5027860;28;20033;-77
2022/07/24 06:42:39;;;;;;;13.30;4.30;;;;;;;;;;5027537;28;20018;-77
2022/07/24 06:45:06;;;;;;;12.15;4.97;;;;;;;;;;5023023;28;20052;-76
2022/07/24 06:47:32;;;;;;;11.27;4.80;;;;;;;;;;5042822;28;20021;-76
2022/07/24 06:49:58;;;;;;;9.68;4.22;;;;;;;;;;5025737;28;20056;-76
2022/07/24 06:52:24;;;;;;;10.07;4.50;;;;;;;;;;5026394;28;20064;-76
2022/07/24 06:54:50;;;;;;;10.63;4.78;;;;;;;;;;5024593;28;20125;-76
2022/07/24 06:57:17;;;;;;;10.82;4.10;;;;;;;;;;5027451;28;20487;-76
2022/07/24 06:59:44;;;;;;;12.20;4.07;;;;;;;;;;5028682;28;20025;-76
2022/07/24 07:02:10;;;;;;;9.40;3.70;;;;;;;;;;5028612;28;20026;-76
2022/07/24 07:04:36;;;;;;;9.85;4.18;;;;;;;;;;5024546;28;20045;-76
2022/07/24 07:07:03;;;;;;;9.68;3.67;;;;;;;;;;5027326;28;20079;-76
2022/07/24 07:09:29;;;;;;;9.82;4.32;;;;;;;;;;5027877;28;20029;-79
2022/07/24 07:11:55;;;;;;;9.85;4.35;;;;;;;;;;5026243;28;20549;-77
2022/07/24 07:14:21;;;;;;;8.48;3.50;;;;;;;;;;5028896;28;20033;-76
2022/07/24 07:16:48;;;;;;;7.03;4.07;;;;;;;;;;5027402;28;20071;-77
2022/07/24 07:19:14;;;;;;;7.85;3.65;;;;;;;;;;5022583;28;20029;-76
2022/07/24 07:21:40;;;;;;;6.55;3.78;;;;;;;;;;5024345;28;20026;-77
2022/07/24 07:24:06;;;;;;;7.53;3.45;;;;;;;;;;5026205;28;20018;-76
2022/07/24 07:26:32;;;;;;;13.95;5.20;;;;;;;;;;5025007;28;20033;-76
2022/07/24 07:28:58;;;;;;;7.72;3.53;;;;;;;;;;5023855;28;20484;-77
2022/07/24 07:31:26;;;;;;;8.25;3.80;;;;;;;;;;5022305;28;20056;-76
2022/07/24 07:33:52;;;;;;;7.32;3.40;;;;;;;;;;5024798;28;20029;-76
2022/07/24 07:36:19;;;;;;;11.27;5.45;;;;;;;;;;5027191;28;20035;-77
2022/07/24 07:38:46;;;;;;;10.32;4.20;;;;;;;;;;5026675;28;20131;-76
2022/07/24 07:41:12;;;;;;;8.68;3.78;;;;;;;;;;5027176;28;20026;-76
2022/07/24 07:43:39;;;;;;;10.48;5.50;;;;;;;;;;5024258;28;20049;-76
2022/07/24 07:46:05;;;;;;;8.98;3.83;;;;;;;;;;5024536;28;20039;-76
2022/07/24 07:48:31;;;;;;;10.50;4.80;;;;;;;;;;5026740;28;20079;-76
2022/07/24 07:50:58;;;;;;;11.10;3.83;;;;;;;;;;5024303;28;20033;-77
2022/07/24 07:53:24;;;;;;;10.98;3.80;;;;;;;;;;5026897;28;20112;-76
2022/07/24 07:55:52;;;;;;;8.13;4.18;;;;;;;;;;5027326;28;20029;-76
2022/07/24 07:58:19;;;;;;;7.90;4.18;;;;;;;;;;5025946;28;20033;-76
2022/07/24 08:00:45;;;;;;;10.43;3.97;;;;;;;;;;5025242;28;20033;-77
2022/07/24 08:03:11;;;;;;;10.38;4.95;;;;;;;;;;5023401;28;20026;-76
2022/07/24 08:05:37;;;;;;;6.60;3.90;;;;;;;;;;5027288;28;20434;-76
2022/07/24 08:08:04;;;;;;;7.97;4.13;;;;;;;;;;5024322;28;21317;-76
2022/07/24 08:10:30;;;;;;;11.27;4.03;;;;;;;;;;5025762;28;20029;-76
2022/07/24 08:12:56;;;;;;;9.65;4.40;;;;;;;;;;5023576;28;20034;-76
2022/07/24 08:15:22;;;;;;;7.13;3.75;;;;;;;;;;5025945;28;20041;-76
2022/07/24 08:17:52;;;;;;;10.77;4.18;;;;;;;;;;5025744;28;20044;-77
2022/07/24 08:20:19;;;;;;;9.52;4.32;;;;;;;;;;5028942;28;20448;-76
2022/07/24 08:22:45;;;;;;;10.82;3.97;;;;;;;;;;5031229;28;20018;-77
2022/07/24 08:25:12;;;;;;;7.65;3.95;;;;;;;;;;5026780;28;20030;-77
2022/07/24 08:27:38;;;;;;;10.15;4.57;;;;;;;;;;5032160;28;20072;-76
2022/07/24 08:30:05;;;;;;;9.80;4.20;;;;;;;;;;5023833;28;20057;-77
2022/07/24 08:32:31;;;;;;;7.10;4.13;;;;;;;;;;5029517;28;20035;-76
2022/07/24 08:34:57;;;;;;;6.00;3.65;;;;;;;;;;5030969;28;20030;-77
2022/07/24 08:37:23;;;;;;;7.00;3.83;;;;;;;;;;5029861;28;20049;-77
2022/07/24 08:39:49;;;;;;;9.35;5.03;;;;;;;;;;5042569;28;20472;-78
2022/07/24 08:42:16;;;;;;;6.82;3.72;;;;;;;;;;5028320;28;20034;-77
2022/07/24 08:44:42;;;;;;;14.43;4.47;;;;;;;;;;5025565;28;20025;-76
2022/07/24 08:47:08;;;;;;;9.43;3.75;;;;;;;;;;5025549;28;20061;-76
2022/07/24 08:49:36;;;;;;;8.82;4.45;;;;;;;;;;5029837;28;20025;-77
2022/07/24 08:52:08;;;;;;;8.35;4.10;;;;;;;;;;5016610;28;20093;-75
2022/07/24 08:54:35;;;;;;;8.32;3.53;;;;;;;;;;5028007;28;20141;-77
2022/07/24 08:57:01;;;;;;;8.90;3.67;;;;;;;;;;5029079;28;20464;-76
2022/07/24 08:59:28;;;;;;;7.13;4.28;;;;;;;;;;5031134;28;20033;-77
2022/07/24 09:01:54;;;;;;;6.85;3.63;;;;;;;;;;5030236;28;20029;-77
2022/07/24 09:04:35;;;;;;;7.45;3.53;;;;;;;;;;5029375;28;20507;-76
2022/07/24 09:07:03;;;;;;;11.48;4.00;;;;;;;;;;5027040;28;20033;-77
2022/07/24 09:09:29;;;;;;;10.90;3.80;;;;;;;;;;5029413;28;20105;-77
2022/07/24 09:12:09;;;;;;;6.90;3.40;;;;;;;;;;5028574;28;20507;-77
2022/07/24 09:14:36;;;;;;;6.93;3.60;;;;;;;;;;5028045;28;20025;-77
2022/07/24 09:17:03;;;;;;;8.38;3.67;;;;;;;;;;5032041;28;20022;-77
2022/07/24 09:19:30;;;;;;;7.80;4.05;;;;;;;;;;5032278;28;20048;-76
2022/07/24 09:21:56;;;;;;;9.18;3.55;;;;;;;;;;5029671;28;20049;-77
2022/07/24 09:24:22;;;;;;;14.52;3.72;;;;;;;;;;5026182;28;20508;-77
2022/07/24 09:26:48;;;;;;;8.75;4.20;;;;;;;;;;5030034;28;20048;-77
2022/07/24 09:29:15;;;;;;;8.73;3.58;;;;;;;;;;5024649;28;20578;-77
2022/07/24 09:32:00;;;;;;;10.25;4.28;;;;;;;;;;5028687;28;20423;-77
2022/07/24 09:34:26;;;;;;;;;;;;;;;;;;5029266;28;20025;-77
2022/07/24 09:37:04;;;;;;;4.57;3.40;;;;;;;;;;5030838;28;19909;-77
2022/07/24 09:39:34;;;;;;;8.40;3.83;;;;;;;;;;5026815;28;20049;-78
2022/07/24 09:42:01;;;;;;;7.45;3.35;;;;;;;;;;5022576;28;20379;-76
2022/07/24 09:44:29;;;;;;;9.20;4.20;;;;;;;;;;5025965;28;20022;-76
2022/07/24 09:46:56;;;;;;;12.18;4.03;;;;;;;;;;5022811;28;20044;-77
2022/07/24 09:49:22;;;;;;;10.02;3.65;;;;;;;;;;5024517;28;20361;-77
2022/07/24 09:52:04;;;;;;;7.93;3.83;;;;;;;;;;5024716;28;20021;-76
2022/07/24 09:54:41;;;;;;;6.40;3.40;;;;;;;;;;5022645;28;20127;-78
2022/07/24 09:57:19;;;;;;;6.03;3.80;;;;;;;;;;5021931;28;20060;-77
2022/07/24 09:59:47;;;;;;;6.72;3.85;;;;;;;;;;5023595;28;20037;-77
2022/07/24 10:02:17;;;;;;;8.35;3.63;;;;;;;;;;5021924;28;20502;-77
2022/07/24 10:04:44;;;;;;;5.10;3.58;;;;;;;;;;5023361;28;20099;-77
2022/07/24 10:07:11;;;;;;;8.18;3.75;;;;;;;;;;5021738;28;20037;-76
2022/07/24 10:09:41;;;;;;;8.90;3.70;;;;;;;;;;5021834;28;20029;-75
2022/07/24 10:12:11;;;;;;;7.57;4.60;;;;;;;;;;5020220;28;20645;-75
2022/07/24 10:14:39;;;;;;;8.02;3.63;;;;;;;;;;5023154;28;20037;-76
2022/07/24 10:17:09;;;;;;;6.60;3.17;;;;;;;;;;5023874;28;20025;-75
2022/07/24 10:19:48;;;;;;;7.57;3.53;;;;;;;;;;5026560;28;20116;-76
2022/07/24 10:22:22;;;;;;;7.85;3.33;;;;;;;;;;5023543;28;20072;-76
2022/07/24 10:25:08;;;;;;;6.65;4.00;;;;;;;;;;5021972;28;20049;-76
2022/07/24 10:27:39;;;;;;;5.50;3.20;;;;;;;;;;5022626;28;20025;-76
2022/07/24 10:30:09;;;;;;;5.97;3.78;;;;;;;;;;5021132;28;20029;-76
2022/07/24 10:32:37;;;;;;;7.80;3.67;;;;;;;;;;5022310;28;20507;-77
2022/07/24 10:35:16;;;;;;;10.43;3.38;;;;;;;;;;5023823;28;20042;-76
2022/07/24 10:37:45;;;;;;;5.85;3.30;;;;;;;;;;5023791;28;20025;-77
2022/07/24 10:40:30;;;;;;;7.07;4.22;;;;;;;;;;5022981;28;20040;-74
2022/07/24 10:43:05;;;;;;;6.07;3.55;;;;;;;;;;5023718;28;20550;-75
2022/07/24 10:45:32;;;;;;;3.85;3.10;;;;;;;;;;5021816;28;20296;-76
2022/07/24 10:47:59;;;;;;;7.63;3.50;;;;;;;;;;5024611;28;20099;-75
2022/07/24 10:50:45;;;;;;;5.97;3.10;;;;;;;;;;5021976;28;20621;-75
2022/07/24 10:53:21;;;;;;;6.70;3.25;;;;;;;;;;5024950;28;20112;-76
2022/07/24 10:55:47;;;;;;;7.03;3.30;;;;;;;;;;5028328;28;20053;-76
2022/07/24 10:58:15;;;;;;;8.18;3.20;;;;;;;;;;5022229;28;20108;-75
2022/07/24 11:00:44;;;;;;;7.30;3.67;;;;;;;;;;5023230;28;20036;-77
2022/07/24 11:03:23;;;;;;;5.63;3.55;;;;;;;;;;5021048;28;20026;-76
2022/07/24 11:06:05;;;;;;;7.22;3.25;;;;;;;;;;5027115;28;20525;-75
2022/07/24 11:08:33;;;;;;;3.63;2.60;;;;;;;;;;5019301;28;20037;-76
2022/07/24 11:11:07;;;;;;;5.40;3.38;;;;;;;;;;5021156;28;20533;-78
2022/07/24 11:13:33;;;;;;;4.38;2.60;;;;;;;;;;5020379;28;20037;-76
2022/07/24 11:16:11;;;;;;;3.55;3.20;;;;;;;;;;5020036;28;20100;-77
2022/07/24 11:18:38;;;;;;;4.88;2.65;;;;;;;;;;5020625;28;20320;-75
2022/07/24 11:21:04;;;;;;;5.00;2.75;;;;;;;;;;5022737;28;20143;-75
2022/07/24 11:23:31;;;;;;;4.57;3.08;;;;;;;;;;5021445;28;20106;-77
2022/07/24 11:26:16;;;;;;;5.38;3.05;;;;;;;;;;5019802;28;20030;-76
2022/07/24 11:28:42;;;;;;;6.03;3.05;;;;;;;;;;5020090;28;20029;-77
2022/07/24 11:31:10;;;;;;;3.97;2.78;;;;;;;;;;5021190;28;20053;-76
2022/07/24 11:33:37;;;;;;;4.97;2.97;;;;;;;;;;5023999;28;20033;-76
2022/07/24 11:36:08;;;;;;;5.90;3.28;;;;;;;;;;5021393;28;20037;-78
2022/07/24 11:38:34;;;;;;;3.67;2.85;;;;;;;;;;5024923;28;20234;-77
2022/07/24 11:41:07;;;;;;;6.20;3.88;;;;;;;;;;5021621;28;20021;-76
2022/07/24 11:43:36;;;;;;;6.72;3.00;;;;;;;;;;5022321;28;20475;-76
2022/07/24 11:46:02;;;;;;;4.60;2.92;;;;;;;;;;5024653;28;20037;-74
2022/07/24 11:48:29;;;;;;;5.82;3.10;;;;;;;;;;5021378;28;20112;-75
2022/07/24 11:51:05;;;;;;;5.47;3.42;;;;;;;;;;5025179;28;20044;-75
2022/07/24 11:53:31;;;;;;;5.13;2.70;;;;;;;;;;5018218;28;20056;-75
2022/07/24 11:56:04;;;;;;;6.63;2.90;;;;;;;;;;5020338;28;20084;-76
2022/07/24 11:58:37;;;;;;;4.03;2.47;;;;;;;;;;5018421;28;20025;-76
2022/07/24 12:01:03;;;;;;;3.17;2.50;;;;;;;;;;5021776;28;20021;-78
2022/07/24 12:03:29;;;;;;;4.97;3.00;;;;;;;;;;5023127;28;20030;-79
2022/07/24 12:05:55;;;;;;;5.13;2.90;;;;;;;;;;5019416;28;20021;-78
2022/07/24 12:08:27;;;;;;;4.47;3.00;;;;;;;;;;5021468;28;20025;-77
2022/07/24 12:10:57;;;;;;;3.10;2.72;;;;;;;;;;5017034;28;20108;-79
2022/07/24 12:13:23;;;;;;;5.65;3.28;;;;;;;;;;5022350;28;20386;-78
2022/07/24 12:15:49;;;;;;;4.22;3.40;;;;;;;;;;5023111;28;20103;-79
2022/07/24 12:18:16;;;;;;;4.63;3.00;;;;;;;;;;5018431;28;20021;-77
2022/07/24 12:20:43;;;;;;;4.45;3.28;;;;;;;;;;5023341;28;20105;-79
2022/07/24 12:23:10;;;;;;;4.85;3.20;;;;;;;;;;5024247;28;20076;-77
2022/07/24 12:25:37;;;;;;;4.97;3.30;;;;;;;;;;5022411;28;20108;-77
2022/07/24 12:28:03;;;;;;;4.60;3.10;;;;;;;;;;5022732;28;20040;-76
2022/07/24 12:30:34;;;;;;;4.97;3.13;;;;;;;;;;5019647;28;20095;-78
2022/07/24 12:33:18;;;;;;;4.35;3.33;;;;;;;;;;5035686;28;20026;-77
2022/07/24 12:35:54;;;;;;;4.47;3.00;;;;;;;;;;5023728;28;20030;-78
2022/07/24 12:38:31;;;;;;;4.03;2.83;;;;;;;;;;5019739;28;20029;-78
2022/07/24 12:41:11;;;;;;;4.43;2.78;;;;;;;;;;5017705;28;20030;-78
2022/07/24 12:43:56;;;;;;;5.10;3.03;;;;;;;;;;5021274;28;20087;-77
2022/07/24 12:46:23;;;;;;;5.82;2.97;;;;;;;;;;5020661;28;20025;-78
2022/07/24 12:49:01;;;;;;;5.00;3.15;;;;;;;;;;5023746;28;20044;-77
2022/07/24 12:51:44;;;;;;;3.67;2.92;;;;;;;;;;5021976;28;20079;-77
2022/07/24 12:54:14;;;;;;;6.63;3.17;;;;;;;;;;5023382;28;20112;-77
2022/07/24 12:56:41;;;;;;;5.75;3.15;;;;;;;;;;5023638;28;20545;-77
2022/07/24 12:59:07;;;;;;;9.07;3.42;;;;;;;;;;5022541;28;20060;-76
2022/07/24 13:01:51;;;;;;;4.82;2.75;;;;;;;;;;5020504;28;20029;-76
2022/07/24 13:04:18;;;;;;;5.25;3.25;;;;;;;;;;5024415;28;20029;-78
2022/07/24 13:06:46;;;;;;;5.18;3.10;;;;;;;;;;5025156;28;20048;-78
2022/07/24 13:09:12;;;;;;;4.05;2.80;;;;;;;;;;5020468;28;20037;-77
2022/07/24 13:11:39;;;;;;;7.60;2.92;;;;;;;;;;5022152;28;20036;-77
2022/07/24 13:14:06;;;;;;;5.20;3.28;;;;;;;;;;5022997;28;20477;-78
2022/07/24 13:16:33;;;;;;;4.05;3.03;;;;;;;;;;5021750;28;20307;-77
2022/07/24 13:18:59;;;;;;;3.92;3.30;;;;;;;;;;5023040;28;20032;-78
2022/07/24 13:21:25;;;;;;;4.05;3.05;;;;;;;;;;5025026;28;20021;-78
2022/07/24 13:23:52;;;;;;;3.85;2.92;;;;;;;;;;5022871;28;20025;-78
2022/07/24 13:26:18;;;;;;;7.00;3.78;;;;;;;;;;5023416;28;20025;-78
2022/07/24 13:28:45;;;;;;;3.75;2.95;;;;;;;;;;5023519;28;20030;-78
2022/07/24 13:31:11;;;;;;;3.47;2.60;;;;;;;;;;5021967;28;20059;-77
2022/07/24 13:33:37;;;;;;;4.07;2.85;;;;;;;;;;5023319;28;20053;-77
2022/07/24 13:36:08;;;;;;;3.53;2.83;;;;;;;;;;5022214;28;20087;-80
2022/07/24 13:38:34;;;;;;;3.40;2.75;;;;;;;;;;5022747;28;20131;-77
2022/07/24 13:41:01;;;;;;;4.15;2.40;;;;;;;;;;5023513;28;20025;-77
2022/07/24 13:43:27;;;;;;;4.05;2.70;;;;;;;;;;5022765;28;20037;-76
2022/07/24 13:45:53;;;;;;;3.88;2.50;;;;;;;;;;5022453;28;20768;-77
2022/07/24 13:48:19;;;;;;;3.67;2.42;;;;;;;;;;5022237;28;20135;-77
2022/07/24 13:50:45;;;;;;;2.97;2.67;;;;;;;;;;5025253;28;20026;-77
2022/07/24 13:53:11;;;;;;;5.13;2.80;;;;;;;;;;5023469;28;20471;-76
2022/07/24 13:55:42;;;;;;;4.50;2.78;;;;;;;;;;5024688;28;20478;-76
2022/07/24 13:58:08;;;;;;;6.00;2.95;;;;;;;;;;5023585;28;20021;-78
2022/07/24 14:00:35;;;;;;;3.47;3.00;;;;;;;;;;5023731;28;20443;-77
2022/07/24 14:03:03;;;;;;;5.57;3.10;;;;;;;;;;5025839;28;20475;-77
2022/07/24 14:05:30;;;;;;;6.15;2.65;;;;;;;;;;5026011;28;20479;-76
2022/07/24 14:07:56;;;;;;;5.25;2.92;;;;;;;;;;5027196;28;20025;-76
2022/07/24 14:10:22;;;;;;;5.32;3.17;;;;;;;;;;5027030;28;20035;-77
2022/07/24 14:12:49;;;;;;;3.50;2.40;;;;;;;;;;5024030;28;20083;-77
2022/07/24 14:15:15;;;;;;;3.65;3.35;;;;;;;;;;5022783;28;20037;-77
2022/07/24 14:17:42;;;;;;;5.20;3.10;;;;;;;;;;5024790;28;20495;-77
2022/07/24 14:20:12;;;;;;;4.00;2.90;;;;;;;;;;5021016;28;20025;-78
2022/07/24 14:22:41;;;;;;;5.63;4.40;;;;;;;;;;5026187;28;20024;-76
2022/07/24 14:25:07;;;;;;;5.75;3.40;;;;;;;;;;5024012;28;20025;-76
2022/07/24 14:27:34;;;;;;;4.03;2.97;;;;;;;;;;5029957;28;20037;-76
2022/07/24 14:30:00;;;;;;;5.85;3.30;;;;;;;;;;5025908;28;20032;-77
2022/07/24 14:32:26;;;;;;;5.50;3.15;;;;;;;;;;5024517;28;20059;-76
2022/07/24 14:34:53;;;;;;;5.47;3.47;;;;;;;;;;5029891;28;20033;-76
2022/07/24 14:37:19;;;;;;;6.35;2.90;;;;;;;;;;5036941;28;20081;-77
2022/07/24 14:39:45;;;;;;;6.20;3.50;;;;;;;;;;5025262;28;20112;-76
2022/07/24 14:42:11;;;;;;;5.05;3.42;;;;;;;;;;5028362;28;20030;-76
2022/07/24 14:44:37;;;;;;;6.40;3.97;;;;;;;;;;5026223;28;20034;-76